sensor_id;sensor_type;location;lat;lon;timestamp;P1;durP1;ratioP1;P2;durP2;ratioP2
22359;SDS011;11347;52.030;4.690;2023-06-22T09:27:38;14.00;;;7.40;;
22359;SDS011;11347;52.030;4.690;2023-06-22T09:30:04;10.75;;;7.43;;
22359;SDS011;11347;52.030;4.690;2023-06-22T09:32:30;10.87;;;7.37;;
22359;SDS011;11347;52.030;4.690;2023-06-22T09:34:55;14.13;;;8.47;;
22359;SDS011;11347;52.030;4.690;2023-06-22T09:37:21;13.17;;;7.93;;
22359;SDS011;11347;52.030;4.690;2023-06-22T09:39:46;11.53;;;7.67;;
22359;SDS011;11347;52.030;4.690;2023-06-22T09:42:12;13.10;;;8.10;;
22359;SDS011;11347;52.030;4.690;2023-06-22T09:44:38;10.95;;;7.55;;
22359;SDS011;11347;52.030;4.690;2023-06-22T09:47:04;12.00;;;7.30;;
22359;SDS011;11347;52.030;4.690;2023-06-22T09:49:30;10.73;;;7.22;;
22359;SDS011;11347;52.030;4.690;2023-06-22T09:51:56;11.48;;;6.75;;
22359;SDS011;11347;52.030;4.690;2023-06-22T09:54:21;10.38;;;6.75;;
22359;SDS011;11347;52.030;4.690;2023-06-22T09:56:47;10.50;;;5.73;;
22359;SDS011;11347;52.030;4.690;2023-06-22T09:59:13;10.70;;;6.30;;
22359;SDS011;11347;52.030;4.690;2023-06-22T10:01:38;11.70;;;7.03;;
22359;SDS011;11347;52.030;4.690;2023-06-22T10:04:05;11.87;;;7.67;;
22359;SDS011;11347;52.030;4.690;2023-06-22T10:06:31;12.30;;;8.50;;
22359;SDS011;11347;52.030;4.690;2023-06-22T10:08:57;12.13;;;8.70;;
22359;SDS011;11347;52.030;4.690;2023-06-22T10:11:22;12.93;;;8.63;;
22359;SDS011;11347;52.030;4.690;2023-06-22T10:13:54;17.17;;;9.40;;
22359;SDS011;11347;52.030;4.690;2023-06-22T10:16:19;12.13;;;8.40;;
22359;SDS011;11347;52.030;4.690;2023-06-22T10:18:45;13.90;;;9.35;;
22359;SDS011;11347;52.030;4.690;2023-06-22T10:21:12;14.23;;;8.97;;
22359;SDS011;11347;52.030;4.690;2023-06-22T10:23:40;12.35;;;8.63;;
22359;SDS011;11347;52.030;4.690;2023-06-22T10:26:06;12.63;;;8.60;;
22359;SDS011;11347;52.030;4.690;2023-06-22T10:28:31;13.88;;;9.13;;
22359;SDS011;11347;52.030;4.690;2023-06-22T10:30:57;15.52;;;10.48;;
22359;SDS011;11347;52.030;4.690;2023-06-22T10:33:22;14.38;;;10.10;;
22359;SDS011;11347;52.030;4.690;2023-06-22T10:35:48;14.93;;;10.30;;
22359;SDS011;11347;52.030;4.690;2023-06-22T10:38:13;14.02;;;10.15;;
22359;SDS011;11347;52.030;4.690;2023-06-22T10:40:39;15.93;;;10.70;;
22359;SDS011;11347;52.030;4.690;2023-06-22T10:43:05;14.67;;;10.23;;
22359;SDS011;11347;52.030;4.690;2023-06-22T10:45:31;16.10;;;10.67;;
22359;SDS011;11347;52.030;4.690;2023-06-22T10:47:56;14.70;;;10.30;;
22359;SDS011;11347;52.030;4.690;2023-06-22T10:50:22;14.17;;;10.83;;
22359;SDS011;11347;52.030;4.690;2023-06-22T10:52:49;14.15;;;9.98;;
22359;SDS011;11347;52.030;4.690;2023-06-22T10:55:14;13.00;;;9.43;;
22359;SDS011;11347;52.030;4.690;2023-06-22T10:57:40;16.17;;;11.30;;
22359;SDS011;11347;52.030;4.690;2023-06-22T11:00:08;15.35;;;10.60;;
22359;SDS011;11347;52.030;4.690;2023-06-22T11:02:34;16.63;;;10.68;;
22359;SDS011;11347;52.030;4.690;2023-06-22T11:04:59;16.87;;;11.60;;
22359;SDS011;11347;52.030;4.690;2023-06-22T11:07:25;15.97;;;10.33;;
22359;SDS011;11347;52.030;4.690;2023-06-22T11:09:53;14.88;;;10.13;;
22359;SDS011;11347;52.030;4.690;2023-06-22T11:12:20;14.95;;;10.38;;
22359;SDS011;11347;52.030;4.690;2023-06-22T11:14:46;14.67;;;10.83;;
22359;SDS011;11347;52.030;4.690;2023-06-22T11:17:11;13.15;;;9.82;;
22359;SDS011;11347;52.030;4.690;2023-06-22T11:19:37;13.57;;;9.13;;
22359;SDS011;11347;52.030;4.690;2023-06-22T11:22:03;12.80;;;8.60;;
22359;SDS011;11347;52.030;4.690;2023-06-22T11:24:29;13.48;;;9.23;;
22359;SDS011;11347;52.030;4.690;2023-06-22T11:26:54;13.27;;;9.00;;
22359;SDS011;11347;52.030;4.690;2023-06-22T11:29:21;12.20;;;8.57;;
22359;SDS011;11347;52.030;4.690;2023-06-22T11:31:46;13.95;;;9.38;;
22359;SDS011;11347;52.030;4.690;2023-06-22T11:34:12;16.23;;;10.40;;
22359;SDS011;11347;52.030;4.690;2023-06-22T11:36:37;19.23;;;10.13;;
22359;SDS011;11347;52.030;4.690;2023-06-22T11:39:03;17.30;;;11.87;;
22359;SDS011;11347;52.030;4.690;2023-06-22T11:41:30;16.73;;;12.88;;
22359;SDS011;11347;52.030;4.690;2023-06-22T11:43:55;18.45;;;12.50;;
22359;SDS011;11347;52.030;4.690;2023-06-22T11:46:21;17.05;;;12.63;;
22359;SDS011;11347;52.030;4.690;2023-06-22T11:48:46;18.55;;;12.70;;
22359;SDS011;11347;52.030;4.690;2023-06-22T11:51:12;19.05;;;13.32;;
22359;SDS011;11347;52.030;4.690;2023-06-22T11:53:37;21.17;;;12.90;;
22359;SDS011;11347;52.030;4.690;2023-06-22T11:56:03;17.60;;;13.00;;
22359;SDS011;11347;52.030;4.690;2023-06-22T11:58:29;19.00;;;13.10;;
22359;SDS011;11347;52.030;4.690;2023-06-22T12:00:55;19.33;;;12.97;;
22359;SDS011;11347;52.030;4.690;2023-06-22T12:03:21;19.17;;;12.73;;
22359;SDS011;11347;52.030;4.690;2023-06-22T12:05:47;21.45;;;13.77;;
22359;SDS011;11347;52.030;4.690;2023-06-22T12:08:13;22.02;;;14.35;;
22359;SDS011;11347;52.030;4.690;2023-06-22T12:10:38;20.83;;;14.40;;
22359;SDS011;11347;52.030;4.690;2023-06-22T12:13:04;24.27;;;16.55;;
22359;SDS011;11347;52.030;4.690;2023-06-22T12:15:30;21.25;;;14.43;;
22359;SDS011;11347;52.030;4.690;2023-06-22T12:17:55;22.27;;;14.95;;
22359;SDS011;11347;52.030;4.690;2023-06-22T12:20:21;25.40;;;16.25;;
22359;SDS011;11347;52.030;4.690;2023-06-22T12:22:46;22.48;;;16.15;;
22359;SDS011;11347;52.030;4.690;2023-06-22T12:25:13;24.67;;;16.58;;
22359;SDS011;11347;52.030;4.690;2023-06-22T12:27:38;25.52;;;17.52;;
22359;SDS011;11347;52.030;4.690;2023-06-22T12:30:04;23.27;;;16.67;;
22359;SDS011;11347;52.030;4.690;2023-06-22T12:32:30;23.05;;;16.70;;
22359;SDS011;11347;52.030;4.690;2023-06-22T12:34:56;22.60;;;16.23;;
22359;SDS011;11347;52.030;4.690;2023-06-22T12:37:21;24.23;;;17.30;;
22359;SDS011;11347;52.030;4.690;2023-06-22T12:39:48;25.45;;;17.73;;
22359;SDS011;11347;52.030;4.690;2023-06-22T12:42:13;24.50;;;17.13;;
22359;SDS011;11347;52.030;4.690;2023-06-22T12:44:39;24.17;;;17.08;;
22359;SDS011;11347;52.030;4.690;2023-06-22T12:47:06;22.67;;;16.90;;
22359;SDS011;11347;52.030;4.690;2023-06-22T12:49:32;23.77;;;16.05;;
22359;SDS011;11347;52.030;4.690;2023-06-22T12:51:57;23.60;;;15.87;;
22359;SDS011;11347;52.030;4.690;2023-06-22T12:54:23;22.40;;;16.00;;
22359;SDS011;11347;52.030;4.690;2023-06-22T12:56:50;22.08;;;16.38;;
22359;SDS011;11347;52.030;4.690;2023-06-22T12:59:15;25.95;;;16.83;;
22359;SDS011;11347;52.030;4.690;2023-06-22T13:01:42;24.75;;;17.42;;
22359;SDS011;11347;52.030;4.690;2023-06-22T13:04:09;24.47;;;16.87;;
22359;SDS011;11347;52.030;4.690;2023-06-22T13:06:36;25.17;;;17.10;;
22359;SDS011;11347;52.030;4.690;2023-06-22T13:09:01;26.13;;;17.80;;
22359;SDS011;11347;52.030;4.690;2023-06-22T13:11:30;24.92;;;17.80;;
22359;SDS011;11347;52.030;4.690;2023-06-22T13:13:55;25.23;;;17.40;;
22359;SDS011;11347;52.030;4.690;2023-06-22T13:16:21;26.53;;;18.03;;
22359;SDS011;11347;52.030;4.690;2023-06-22T13:18:46;22.23;;;16.67;;
22359;SDS011;11347;52.030;4.690;2023-06-22T13:21:12;25.30;;;17.00;;
22359;SDS011;11347;52.030;4.690;2023-06-22T13:23:38;26.35;;;17.42;;
22359;SDS011;11347;52.030;4.690;2023-06-22T13:26:04;24.93;;;17.17;;
22359;SDS011;11347;52.030;4.690;2023-06-22T13:28:29;23.20;;;17.80;;
22359;SDS011;11347;52.030;4.690;2023-06-22T13:30:55;24.77;;;17.80;;
22359;SDS011;11347;52.030;4.690;2023-06-22T13:33:20;24.40;;;17.67;;
22359;SDS011;11347;52.030;4.690;2023-06-22T13:35:46;23.37;;;17.10;;
22359;SDS011;11347;52.030;4.690;2023-06-22T13:38:11;25.93;;;18.63;;
22359;SDS011;11347;52.030;4.690;2023-06-22T13:40:37;25.15;;;18.10;;
22359;SDS011;11347;52.030;4.690;2023-06-22T13:43:03;24.65;;;17.80;;
22359;SDS011;11347;52.030;4.690;2023-06-22T13:45:30;24.17;;;18.52;;
22359;SDS011;11347;52.030;4.690;2023-06-22T13:47:56;26.60;;;19.20;;
22359;SDS011;11347;52.030;4.690;2023-06-22T13:50:21;25.73;;;18.15;;
22359;SDS011;11347;52.030;4.690;2023-06-22T13:52:47;27.00;;;19.88;;
22359;SDS011;11347;52.030;4.690;2023-06-22T13:55:12;26.88;;;20.00;;
22359;SDS011;11347;52.030;4.690;2023-06-22T13:57:39;26.30;;;19.52;;
22359;SDS011;11347;52.030;4.690;2023-06-22T14:00:05;28.43;;;20.23;;
22359;SDS011;11347;52.030;4.690;2023-06-22T14:02:33;29.33;;;20.40;;
22359;SDS011;11347;52.030;4.690;2023-06-22T14:04:59;26.88;;;19.92;;
22359;SDS011;11347;52.030;4.690;2023-06-22T14:07:25;29.27;;;20.27;;
22359;SDS011;11347;52.030;4.690;2023-06-22T14:09:51;29.38;;;20.30;;
22359;SDS011;11347;52.030;4.690;2023-06-22T14:12:17;28.15;;;20.27;;
22359;SDS011;11347;52.030;4.690;2023-06-22T14:14:43;24.83;;;18.65;;
22359;SDS011;11347;52.030;4.690;2023-06-22T14:17:08;26.90;;;18.80;;
22359;SDS011;11347;52.030;4.690;2023-06-22T14:19:35;22.90;;;16.77;;
22359;SDS011;11347;52.030;4.690;2023-06-22T14:22:00;24.50;;;17.63;;
22359;SDS011;11347;52.030;4.690;2023-06-22T14:24:26;19.80;;;15.40;;
22359;SDS011;11347;52.030;4.690;2023-06-22T14:26:52;18.77;;;13.90;;
22359;SDS011;11347;52.030;4.690;2023-06-22T14:29:18;15.60;;;10.80;;
22359;SDS011;11347;52.030;4.690;2023-06-22T14:31:44;15.98;;;11.90;;
22359;SDS011;11347;52.030;4.690;2023-06-22T14:34:11;15.55;;;10.85;;
22359;SDS011;11347;52.030;4.690;2023-06-22T14:36:36;14.23;;;9.93;;
22359;SDS011;11347;52.030;4.690;2023-06-22T14:39:02;16.17;;;10.30;;
22359;SDS011;11347;52.030;4.690;2023-06-22T14:41:27;16.50;;;10.03;;
22359;SDS011;11347;52.030;4.690;2023-06-22T14:43:54;15.90;;;10.27;;
22359;SDS011;11347;52.030;4.690;2023-06-22T14:46:21;21.42;;;11.93;;
22359;SDS011;11347;52.030;4.690;2023-06-22T14:48:47;40.85;;;15.38;;
22359;SDS011;11347;52.030;4.690;2023-06-22T14:51:13;26.70;;;12.52;;
22359;SDS011;11347;52.030;4.690;2023-06-22T14:53:38;23.80;;;12.48;;
22359;SDS011;11347;52.030;4.690;2023-06-22T14:56:04;26.17;;;12.70;;
22359;SDS011;11347;52.030;4.690;2023-06-22T14:58:30;20.50;;;11.67;;
22359;SDS011;11347;52.030;4.690;2023-06-22T15:01:00;17.60;;;11.35;;
22359;SDS011;11347;52.030;4.690;2023-06-22T15:03:34;18.50;;;11.63;;
22359;SDS011;11347;52.030;4.690;2023-06-22T15:06:01;17.83;;;11.50;;
22359;SDS011;11347;52.030;4.690;2023-06-22T15:08:28;18.30;;;11.35;;
22359;SDS011;11347;52.030;4.690;2023-06-22T15:10:54;15.00;;;10.57;;
22359;SDS011;11347;52.030;4.690;2023-06-22T15:13:20;14.68;;;9.80;;
22359;SDS011;11347;52.030;4.690;2023-06-22T15:15:47;12.80;;;9.88;;
22359;SDS011;11347;52.030;4.690;2023-06-22T15:18:13;12.55;;;9.60;;
22359;SDS011;11347;52.030;4.690;2023-06-22T15:20:40;13.57;;;9.90;;
22359;SDS011;11347;52.030;4.690;2023-06-22T15:23:09;14.18;;;9.13;;
22359;SDS011;11347;52.030;4.690;2023-06-22T15:25:35;13.25;;;10.05;;
22359;SDS011;11347;52.030;4.690;2023-06-22T15:28:00;14.07;;;9.93;;
22359;SDS011;11347;52.030;4.690;2023-06-22T15:30:26;17.27;;;10.43;;
22359;SDS011;11347;52.030;4.690;2023-06-22T15:32:52;21.67;;;12.70;;
22359;SDS011;11347;52.030;4.690;2023-06-22T15:35:18;82.23;;;35.20;;
22359;SDS011;11347;52.030;4.690;2023-06-22T15:37:44;48.05;;;24.08;;
22359;SDS011;11347;52.030;4.690;2023-06-22T15:40:10;71.72;;;32.50;;
22359;SDS011;11347;52.030;4.690;2023-06-22T15:42:36;31.53;;;17.20;;
22359;SDS011;11347;52.030;4.690;2023-06-22T15:45:02;34.67;;;19.08;;
22359;SDS011;11347;52.030;4.690;2023-06-22T15:47:28;46.55;;;25.23;;
22359;SDS011;11347;52.030;4.690;2023-06-22T15:49:53;28.07;;;16.10;;
22359;SDS011;11347;52.030;4.690;2023-06-22T15:52:19;29.83;;;17.67;;
22359;SDS011;11347;52.030;4.690;2023-06-22T15:54:45;28.00;;;17.17;;
22359;SDS011;11347;52.030;4.690;2023-06-22T15:57:11;36.83;;;22.70;;
22359;SDS011;11347;52.030;4.690;2023-06-22T15:59:38;44.80;;;29.40;;
22359;SDS011;11347;52.030;4.690;2023-06-22T16:02:04;23.88;;;15.57;;
22359;SDS011;11347;52.030;4.690;2023-06-22T16:04:30;21.15;;;13.85;;
22359;SDS011;11347;52.030;4.690;2023-06-22T16:06:56;19.48;;;12.23;;
22359;SDS011;11347;52.030;4.690;2023-06-22T16:09:21;14.27;;;10.37;;
22359;SDS011;11347;52.030;4.690;2023-06-22T16:11:47;16.13;;;11.63;;
22359;SDS011;11347;52.030;4.690;2023-06-22T16:14:13;14.40;;;10.43;;
22359;SDS011;11347;52.030;4.690;2023-06-22T16:16:38;17.27;;;11.17;;
22359;SDS011;11347;52.030;4.690;2023-06-22T16:19:04;14.43;;;10.67;;
22359;SDS011;11347;52.030;4.690;2023-06-22T16:21:29;14.73;;;10.93;;
22359;SDS011;11347;52.030;4.690;2023-06-22T16:23:55;15.40;;;10.80;;
22359;SDS011;11347;52.030;4.690;2023-06-22T16:26:20;14.70;;;10.50;;
22359;SDS011;11347;52.030;4.690;2023-06-22T16:28:46;15.10;;;10.23;;
22359;SDS011;11347;52.030;4.690;2023-06-22T16:31:11;13.68;;;9.95;;
22359;SDS011;11347;52.030;4.690;2023-06-22T16:33:37;16.43;;;10.10;;
22359;SDS011;11347;52.030;4.690;2023-06-22T16:36:03;15.10;;;10.40;;
22359;SDS011;11347;52.030;4.690;2023-06-22T16:38:28;13.87;;;10.63;;
22359;SDS011;11347;52.030;4.690;2023-06-22T16:40:57;14.73;;;10.60;;
22359;SDS011;11347;52.030;4.690;2023-06-22T16:43:23;15.35;;;11.20;;
22359;SDS011;11347;52.030;4.690;2023-06-22T16:45:49;14.23;;;11.03;;
22359;SDS011;11347;52.030;4.690;2023-06-22T16:48:14;13.97;;;10.87;;
22359;SDS011;11347;52.030;4.690;2023-06-22T16:50:40;14.37;;;11.03;;
22359;SDS011;11347;52.030;4.690;2023-06-22T16:53:12;14.85;;;11.45;;
22359;SDS011;11347;52.030;4.690;2023-06-22T16:55:38;15.63;;;11.00;;
22359;SDS011;11347;52.030;4.690;2023-06-22T16:58:04;14.82;;;11.30;;
22359;SDS011;11347;52.030;4.690;2023-06-22T17:00:30;14.25;;;11.15;;
22359;SDS011;11347;52.030;4.690;2023-06-22T17:02:56;14.70;;;11.18;;
22359;SDS011;11347;52.030;4.690;2023-06-22T17:05:28;16.38;;;11.75;;
22359;SDS011;11347;52.030;4.690;2023-06-22T17:07:56;15.73;;;11.60;;
22359;SDS011;11347;52.030;4.690;2023-06-22T17:10:26;13.13;;;10.20;;
22359;SDS011;11347;52.030;4.690;2023-06-22T17:12:51;13.93;;;10.77;;
22359;SDS011;11347;52.030;4.690;2023-06-22T17:15:17;14.30;;;11.40;;
22359;SDS011;11347;52.030;4.690;2023-06-22T17:17:45;14.88;;;11.20;;
22359;SDS011;11347;52.030;4.690;2023-06-22T17:20:11;16.55;;;11.65;;
22359;SDS011;11347;52.030;4.690;2023-06-22T17:22:36;14.75;;;11.55;;
22359;SDS011;11347;52.030;4.690;2023-06-22T17:25:04;15.70;;;11.30;;
22359;SDS011;11347;52.030;4.690;2023-06-22T17:27:33;16.25;;;11.70;;
22359;SDS011;11347;52.030;4.690;2023-06-22T17:30:03;15.35;;;11.48;;
22359;SDS011;11347;52.030;4.690;2023-06-22T17:32:32;17.02;;;11.95;;
22359;SDS011;11347;52.030;4.690;2023-06-22T17:34:58;16.80;;;11.80;;
22359;SDS011;11347;52.030;4.690;2023-06-22T17:37:23;15.27;;;11.50;;
22359;SDS011;11347;52.030;4.690;2023-06-22T17:39:52;15.03;;;11.73;;
22359;SDS011;11347;52.030;4.690;2023-06-22T17:42:23;15.70;;;11.93;;
22359;SDS011;11347;52.030;4.690;2023-06-22T17:44:48;15.82;;;12.40;;
22359;SDS011;11347;52.030;4.690;2023-06-22T17:47:14;17.00;;;12.63;;
22359;SDS011;11347;52.030;4.690;2023-06-22T17:49:50;16.85;;;12.75;;
22359;SDS011;11347;52.030;4.690;2023-06-22T17:52:18;16.35;;;12.32;;
22359;SDS011;11347;52.030;4.690;2023-06-22T17:54:44;18.20;;;13.18;;
22359;SDS011;11347;52.030;4.690;2023-06-22T17:57:16;16.33;;;12.33;;
22359;SDS011;11347;52.030;4.690;2023-06-22T17:59:48;16.30;;;12.82;;
22359;SDS011;11347;52.030;4.690;2023-06-22T18:02:24;17.38;;;13.30;;
22359;SDS011;11347;52.030;4.690;2023-06-22T18:04:56;17.27;;;13.50;;
22359;SDS011;11347;52.030;4.690;2023-06-22T18:07:22;18.13;;;13.85;;
22359;SDS011;11347;52.030;4.690;2023-06-22T18:09:51;18.00;;;13.68;;
22359;SDS011;11347;52.030;4.690;2023-06-22T18:12:17;18.13;;;13.80;;
22359;SDS011;11347;52.030;4.690;2023-06-22T18:14:45;17.80;;;13.67;;
22359;SDS011;11347;52.030;4.690;2023-06-22T18:17:11;17.58;;;13.23;;
22359;SDS011;11347;52.030;4.690;2023-06-22T18:19:37;18.73;;;14.00;;
22359;SDS011;11347;52.030;4.690;2023-06-22T18:22:03;17.07;;;13.50;;
22359;SDS011;11347;52.030;4.690;2023-06-22T18:24:29;17.40;;;13.90;;
22359;SDS011;11347;52.030;4.690;2023-06-22T18:26:58;16.92;;;12.50;;
22359;SDS011;11347;52.030;4.690;2023-06-22T18:29:24;17.88;;;12.43;;
22359;SDS011;11347;52.030;4.690;2023-06-22T18:31:51;15.85;;;12.63;;
22359;SDS011;11347;52.030;4.690;2023-06-22T18:34:17;15.65;;;12.30;;
